createdAt,value
2023-07-24T00:00:36.743Z,1.80
2023-07-24T00:03:06.385Z,1.90
2023-07-24T00:05:34.534Z,1.77
2023-07-24T00:08:02.515Z,2.40
2023-07-24T00:10:30.498Z,1.40
2023-07-24T00:12:58.478Z,1.87
2023-07-24T00:15:26.478Z,1.43
2023-07-24T00:17:54.525Z,1.47
2023-07-24T00:20:25.419Z,1.73
2023-07-24T00:22:53.394Z,1.50
2023-07-24T00:25:21.520Z,1.90
2023-07-24T00:27:49.478Z,1.60
2023-07-24T00:30:17.435Z,1.67
2023-07-24T00:32:45.451Z,2.40
2023-07-24T00:35:13.410Z,1.77
2023-07-24T00:37:42.757Z,2.23
2023-07-24T00:40:11.242Z,1.83
2023-07-24T00:42:39.212Z,2.03
2023-07-24T00:45:08.100Z,2.20
2023-07-24T00:47:36.114Z,1.40
2023-07-24T00:50:04.224Z,1.60
2023-07-24T00:52:32.277Z,1.80
2023-07-24T00:55:01.957Z,2.10
2023-07-24T00:57:30.411Z,2.13
2023-07-24T00:59:58.550Z,1.90
2023-07-24T01:02:27.350Z,1.60
2023-07-24T01:04:55.654Z,2.73
2023-07-24T01:07:23.666Z,1.33
2023-07-24T01:09:52.137Z,2.00
2023-07-24T01:12:27.661Z,1.40
2023-07-24T01:15:05.488Z,1.60
2023-07-24T01:17:35.448Z,2.57
2023-07-24T01:20:06.114Z,2.17
2023-07-24T01:22:41.705Z,2.87
2023-07-24T01:25:20.201Z,2.20
2023-07-24T01:27:49.529Z,2.27
2023-07-24T01:30:19.984Z,2.30
2023-07-24T01:32:48.174Z,1.97
2023-07-24T01:35:16.317Z,2.23
2023-07-24T01:37:45.477Z,2.10
2023-07-24T01:40:14.421Z,1.43
2023-07-24T01:42:43.265Z,2.20
2023-07-24T01:45:13.495Z,2.17
2023-07-24T01:47:41.727Z,2.27
2023-07-24T01:50:10.415Z,2.57
2023-07-24T01:52:38.408Z,3.40
2023-07-24T01:55:07.408Z,2.03
2023-07-24T01:57:35.400Z,2.30
2023-07-24T02:00:03.426Z,1.93
2023-07-24T02:02:32.868Z,2.87
2023-07-24T02:05:00.905Z,2.03
2023-07-24T02:07:28.904Z,4.07
2023-07-24T02:09:57.137Z,2.77
2023-07-24T02:12:25.181Z,2.40
2023-07-24T02:14:54.464Z,3.47
2023-07-24T02:17:22.514Z,2.20
2023-07-24T02:19:52.285Z,2.07
2023-07-24T02:22:20.274Z,1.87
2023-07-24T02:24:48.454Z,3.10
2023-07-24T02:27:27.736Z,2.03
2023-07-24T02:29:56.430Z,2.13
2023-07-24T02:32:24.450Z,2.50
2023-07-24T02:34:54.631Z,3.13
2023-07-24T02:37:22.624Z,2.20
2023-07-24T02:39:50.602Z,2.60
2023-07-24T02:42:18.608Z,3.07
2023-07-24T02:44:46.574Z,2.40
2023-07-24T02:47:14.574Z,2.63
2023-07-24T02:49:42.728Z,2.67
2023-07-24T02:52:12.050Z,2.87
2023-07-24T02:54:40.045Z,2.80
2023-07-24T02:57:08.420Z,2.60
2023-07-24T02:59:36.732Z,3.07
2023-07-24T03:02:05.113Z,1.77
2023-07-24T03:04:33.210Z,2.60
2023-07-24T03:07:01.202Z,2.77
2023-07-24T03:09:30.575Z,3.63
2023-07-24T03:11:58.605Z,2.73
2023-07-24T03:14:27.165Z,2.00
2023-07-24T03:16:55.172Z,1.77
2023-07-24T03:19:23.162Z,2.87
2023-07-24T03:21:51.202Z,3.17
2023-07-24T03:24:19.284Z,2.33
2023-07-24T03:26:48.621Z,3.10
2023-07-24T03:29:16.589Z,3.07
2023-07-24T03:31:44.625Z,2.40
2023-07-24T03:34:12.625Z,3.20
2023-07-24T03:36:42.477Z,2.43
2023-07-24T03:39:11.575Z,3.43
2023-07-24T03:41:39.806Z,3.00
2023-07-24T03:44:09.140Z,1.77
2023-07-24T03:46:37.611Z,2.93
2023-07-24T03:49:05.653Z,2.07
2023-07-24T03:51:34.412Z,2.70
2023-07-24T03:54:02.433Z,2.43
2023-07-24T03:56:30.669Z,1.40
2023-07-24T03:58:58.948Z,3.40
2023-07-24T04:01:28.507Z,2.90
2023-07-24T04:03:56.543Z,2.60
2023-07-24T04:06:24.562Z,1.90
2023-07-24T04:08:52.562Z,3.10
2023-07-24T04:11:20.581Z,1.73
2023-07-24T04:13:48.551Z,2.10
2023-07-24T04:16:16.500Z,3.10
2023-07-24T04:18:45.856Z,3.30
2023-07-24T04:21:13.872Z,2.53
2023-07-24T04:23:41.859Z,2.40
2023-07-24T04:26:09.890Z,3.00
2023-07-24T04:28:37.865Z,2.50
2023-07-24T04:31:05.847Z,2.63
2023-07-24T04:33:33.838Z,3.60
2023-07-24T04:36:03.249Z,3.13
2023-07-24T04:38:31.218Z,3.07
2023-07-24T04:40:59.258Z,2.57
2023-07-24T04:43:27.239Z,4.03
2023-07-24T04:45:55.230Z,3.07
2023-07-24T04:48:23.284Z,2.73
2023-07-24T04:50:55.889Z,3.63
2023-07-24T04:53:25.821Z,3.03
2023-07-24T04:55:53.834Z,2.33
2023-07-24T04:58:21.840Z,2.70
2023-07-24T05:00:49.819Z,2.73
2023-07-24T05:03:18.448Z,2.67
2023-07-24T05:05:50.735Z,2.50
2023-07-24T05:08:18.724Z,1.90
2023-07-24T05:10:48.074Z,2.60
2023-07-24T05:13:16.064Z,3.57
2023-07-24T05:15:44.044Z,2.67
2023-07-24T05:18:12.046Z,2.50
2023-07-24T05:20:40.010Z,2.77
2023-07-24T05:23:07.989Z,2.60
2023-07-24T05:25:35.958Z,3.63
2023-07-24T05:28:05.617Z,2.70
2023-07-24T05:30:34.450Z,1.90
2023-07-24T05:33:02.520Z,2.40
2023-07-24T05:35:30.618Z,3.40
2023-07-24T05:37:58.614Z,2.80
2023-07-24T05:40:26.626Z,3.07
2023-07-24T05:42:54.611Z,3.60
2023-07-24T05:45:24.016Z,2.33
2023-07-24T05:47:52.040Z,3.03
2023-07-24T05:50:20.039Z,2.50
2023-07-24T05:52:48.030Z,2.30
2023-07-24T05:55:16.028Z,2.43
2023-07-24T05:57:44.021Z,2.07
2023-07-24T06:00:12.636Z,2.77
2023-07-24T06:02:42.080Z,2.70
2023-07-24T06:05:10.532Z,2.50
2023-07-24T06:07:38.562Z,3.30
2023-07-24T06:10:07.190Z,2.40
2023-07-24T06:12:35.178Z,2.47
2023-07-24T06:15:03.203Z,2.50
2023-07-24T06:17:31.279Z,4.20
2023-07-24T06:20:00.754Z,2.97
2023-07-24T06:22:28.801Z,2.50
2023-07-24T06:24:56.844Z,3.53
2023-07-24T06:27:24.917Z,2.23
2023-07-24T06:29:55.756Z,2.63
2023-07-24T06:32:24.002Z,2.10
2023-07-24T06:34:52.637Z,1.97
2023-07-24T06:37:23.521Z,3.30
2023-07-24T06:39:51.598Z,2.97
2023-07-24T06:42:19.662Z,3.33
2023-07-24T06:44:47.654Z,2.10
2023-07-24T06:47:15.624Z,2.00
2023-07-24T06:49:43.632Z,3.03
2023-07-24T06:52:11.687Z,2.23
2023-07-24T06:54:41.029Z,3.20
2023-07-24T06:57:09.091Z,2.83
2023-07-24T06:59:37.194Z,3.20
2023-07-24T07:02:05.641Z,1.70
2023-07-24T07:04:33.662Z,2.27
2023-07-24T07:07:01.646Z,2.40
2023-07-24T07:09:29.665Z,2.80
2023-07-24T07:11:58.970Z,2.37
2023-07-24T07:14:26.954Z,1.90
2023-07-24T07:16:54.950Z,2.43
2023-07-24T07:19:22.940Z,1.83
2023-07-24T07:21:50.941Z,1.70
2023-07-24T07:24:18.925Z,1.77
2023-07-24T07:26:47.170Z,2.37
2023-07-24T07:29:16.558Z,2.00
2023-07-24T07:31:44.529Z,1.93
2023-07-24T07:34:12.515Z,1.83
2023-07-24T07:36:40.516Z,1.73
2023-07-24T07:39:08.506Z,1.97
2023-07-24T07:41:36.507Z,1.80
2023-07-24T07:44:04.612Z,1.90
2023-07-24T07:46:34.120Z,2.07
2023-07-24T07:49:02.204Z,2.20
2023-07-24T07:51:30.174Z,1.50
2023-07-24T07:53:58.162Z,1.43
2023-07-24T07:56:26.157Z,1.70
2023-07-24T07:58:55.320Z,1.77
2023-07-24T08:01:23.337Z,1.67
2023-07-24T08:03:53.105Z,1.10
2023-07-24T08:06:22.367Z,2.03
2023-07-24T08:08:50.378Z,1.97
2023-07-24T08:11:18.483Z,2.23
2023-07-24T08:13:46.499Z,2.23
2023-07-24T08:16:19.732Z,1.40
2023-07-24T08:18:48.897Z,1.60
2023-07-24T08:21:18.308Z,1.40
2023-07-24T08:23:46.298Z,1.97
2023-07-24T08:26:14.262Z,1.60
2023-07-24T08:28:43.321Z,1.23
2023-07-24T08:31:11.818Z,1.33
2023-07-24T08:33:39.924Z,1.47
2023-07-24T08:36:09.664Z,1.60
2023-07-24T08:38:39.444Z,2.20
2023-07-24T08:41:08.920Z,2.00
2023-07-24T08:43:38.490Z,2.17
2023-07-24T08:46:07.656Z,1.43
2023-07-24T08:48:37.767Z,1.80
2023-07-24T08:51:06.922Z,1.97
2023-07-24T08:53:36.831Z,2.60
2023-07-24T08:56:07.176Z,1.80
2023-07-24T08:58:35.654Z,2.37
2023-07-24T09:01:05.308Z,2.40
2023-07-24T09:03:34.534Z,2.13
2023-07-24T09:06:05.001Z,2.13
2023-07-24T09:08:33.704Z,1.53
2023-07-24T09:11:02.268Z,2.33
2023-07-24T09:13:32.157Z,1.63
2023-07-24T09:16:01.166Z,2.47
2023-07-24T09:18:29.362Z,1.93
2023-07-24T09:20:57.454Z,1.80
2023-07-24T09:23:29.907Z,2.10
2023-07-24T09:25:58.136Z,2.23
2023-07-24T09:28:26.245Z,1.67
2023-07-24T09:30:57.392Z,1.80
2023-07-24T09:33:35.608Z,1.40
2023-07-24T09:36:04.930Z,1.83
2023-07-24T09:38:33.103Z,1.50
2023-07-24T09:41:04.109Z,2.10
2023-07-24T09:46:07.637Z,2.43
2023-07-24T09:48:41.682Z,1.80
2023-07-24T09:51:14.875Z,1.93
2023-07-24T09:53:53.067Z,2.00
2023-07-24T09:56:31.525Z,1.40
2023-07-24T09:59:08.678Z,1.60
2023-07-24T10:01:39.800Z,2.50
2023-07-24T10:04:09.950Z,2.38
2023-07-24T10:06:38.796Z,2.60
2023-07-24T10:09:07.730Z,2.28
2023-07-24T10:11:35.754Z,2.20
2023-07-24T10:14:04.165Z,2.20
2023-07-24T10:16:32.272Z,1.80
2023-07-24T10:19:01.792Z,1.80
2023-07-24T10:21:30.550Z,1.97
2023-07-24T10:24:02.649Z,1.40
2023-07-24T10:26:31.879Z,1.77
2023-07-24T10:29:00.441Z,1.40
2023-07-24T10:31:29.515Z,1.53
2023-07-24T10:33:58.308Z,1.50
2023-07-24T10:36:35.031Z,1.40
2023-07-24T10:39:03.491Z,1.80
2023-07-24T10:41:37.686Z,2.13
2023-07-24T10:44:06.195Z,1.70
2023-07-24T10:46:39.264Z,1.73
2023-07-24T10:49:08.002Z,1.60
2023-07-24T10:51:38.674Z,2.90
2023-07-24T10:54:07.554Z,1.57
2023-07-24T10:56:35.556Z,1.50
2023-07-24T10:59:07.448Z,1.77
2023-07-24T11:01:36.387Z,2.10
2023-07-24T11:04:04.951Z,1.80
2023-07-24T11:06:33.088Z,1.27
2023-07-24T11:09:02.860Z,1.50
2023-07-24T11:11:32.033Z,1.67
2023-07-24T11:14:01.207Z,1.30
2023-07-24T11:16:31.370Z,1.60
2023-07-24T11:18:59.467Z,2.43
2023-07-24T11:21:27.668Z,2.17
2023-07-24T11:23:56.785Z,1.33
2023-07-24T11:26:27.891Z,1.60
2023-07-24T11:28:56.291Z,1.10
2023-07-24T11:31:24.387Z,2.00
2023-07-24T11:33:53.779Z,1.60
2023-07-24T11:36:22.649Z,1.27
2023-07-24T11:38:50.855Z,1.80
2023-07-24T11:41:19.734Z,1.40
2023-07-24T11:43:50.404Z,1.10
2023-07-24T11:46:25.941Z,1.83
2023-07-24T11:48:54.920Z,1.50
2023-07-24T11:51:22.951Z,1.23
2023-07-24T11:53:50.942Z,1.20
2023-07-24T11:56:23.020Z,1.50
2023-07-24T11:58:52.414Z,1.73
2023-07-24T12:01:20.363Z,1.60
2023-07-24T12:03:50.991Z,1.67
2023-07-24T12:06:19.381Z,1.40
2023-07-24T12:08:47.411Z,1.80
2023-07-24T12:11:19.665Z,1.47
2023-07-24T12:13:47.804Z,1.20
2023-07-24T12:16:17.494Z,1.70
2023-07-24T12:18:45.480Z,1.60
2023-07-24T12:21:13.456Z,1.97
2023-07-24T12:23:41.430Z,1.77
2023-07-24T12:26:09.440Z,1.63
2023-07-24T12:28:37.453Z,1.40
2023-07-24T12:31:05.680Z,2.23
2023-07-24T12:33:35.066Z,1.40
2023-07-24T12:36:03.687Z,1.47
2023-07-24T12:38:31.790Z,1.70
2023-07-24T12:40:59.726Z,1.40
2023-07-24T12:43:27.684Z,1.10
2023-07-24T12:45:55.673Z,1.33
2023-07-24T12:48:23.685Z,1.67
2023-07-24T12:50:53.131Z,2.00
2023-07-24T12:53:26.999Z,1.60
2023-07-24T12:56:00.046Z,2.10
2023-07-24T12:58:27.984Z,1.60
2023-07-24T13:00:56.031Z,2.10
2023-07-24T13:03:24.281Z,1.50
2023-07-24T13:05:53.696Z,2.57
2023-07-24T13:08:23.309Z,2.03
2023-07-24T13:10:51.448Z,1.73
2023-07-24T13:13:19.574Z,1.87
2023-07-24T13:15:47.546Z,1.50
2023-07-24T13:18:27.534Z,1.77
2023-07-24T13:20:58.505Z,1.87
2023-07-24T13:23:27.000Z,2.17
2023-07-24T13:25:55.307Z,2.50
2023-07-24T13:28:23.340Z,2.43
2023-07-24T13:30:51.358Z,1.67
2023-07-24T13:33:20.242Z,2.27
2023-07-24T13:35:48.252Z,2.10
2023-07-24T13:38:21.189Z,1.93
2023-07-24T13:40:50.323Z,2.63
2023-07-24T13:43:19.715Z,2.30
2023-07-24T13:45:47.751Z,1.57
2023-07-24T13:48:15.750Z,2.13
2023-07-24T13:50:43.757Z,1.50
2023-07-24T13:53:11.775Z,1.57
2023-07-24T13:55:41.145Z,1.37
2023-07-24T13:58:09.165Z,1.03
2023-07-24T14:00:37.218Z,1.67
2023-07-24T14:03:05.295Z,1.70
2023-07-24T14:05:34.691Z,1.70
2023-07-24T14:08:02.668Z,1.47
2023-07-24T14:10:30.946Z,1.00
2023-07-24T14:13:00.336Z,1.17
2023-07-24T14:15:28.363Z,1.40
2023-07-24T14:17:56.383Z,1.83
2023-07-24T14:20:24.353Z,1.17
2023-07-24T14:22:52.326Z,1.30
2023-07-24T14:25:20.317Z,1.20
2023-07-24T14:27:48.300Z,0.90
2023-07-24T14:30:17.755Z,1.60
2023-07-24T14:32:46.733Z,1.13
2023-07-24T14:35:14.736Z,1.47
2023-07-24T14:37:42.694Z,1.20
2023-07-24T14:40:13.170Z,1.13
2023-07-24T14:42:42.232Z,1.00
2023-07-24T14:45:11.226Z,1.50
2023-07-24T14:47:40.643Z,1.70
2023-07-24T14:50:09.531Z,1.70
2023-07-24T14:52:38.898Z,1.63
2023-07-24T14:55:07.421Z,1.38
2023-07-24T14:57:35.385Z,1.30
2023-07-24T15:00:03.877Z,1.73
2023-07-24T15:02:33.806Z,1.10
2023-07-24T15:05:03.198Z,1.20
2023-07-24T15:07:31.272Z,1.20
2023-07-24T15:09:59.255Z,1.30
2023-07-24T15:12:27.280Z,1.70
2023-07-24T15:14:55.254Z,1.30
2023-07-24T15:17:23.662Z,1.47
2023-07-24T15:19:51.678Z,1.30
2023-07-24T15:22:20.969Z,1.17
2023-07-24T15:24:48.967Z,1.13
2023-07-24T15:27:17.392Z,1.38
2023-07-24T15:29:45.365Z,1.15
2023-07-24T15:32:13.800Z,0.93
2023-07-24T15:34:41.743Z,1.00
2023-07-24T15:37:11.098Z,0.70
2023-07-24T15:39:40.485Z,1.30
2023-07-24T15:42:09.383Z,0.97
2023-07-24T15:44:37.327Z,0.97
2023-07-24T15:47:05.686Z,0.97
2023-07-24T15:49:33.643Z,1.20
2023-07-24T15:52:01.639Z,1.40
2023-07-24T15:54:29.604Z,1.15
2023-07-24T15:56:58.922Z,1.40
2023-07-24T15:59:27.348Z,1.30
2023-07-24T16:01:55.712Z,0.93
2023-07-24T16:04:23.694Z,1.17
2023-07-24T16:06:51.671Z,0.70
2023-07-24T16:09:19.930Z,0.90
2023-07-24T16:11:48.120Z,1.10
2023-07-24T16:14:17.487Z,1.30
2023-07-24T16:16:45.613Z,1.73
2023-07-24T16:19:15.162Z,1.97
2023-07-24T16:21:44.142Z,1.13
2023-07-24T16:24:12.883Z,1.03
2023-07-24T16:26:41.487Z,1.00
2023-07-24T16:29:11.233Z,1.17
2023-07-24T16:31:40.822Z,1.60
2023-07-24T16:34:08.986Z,1.00
2023-07-24T16:36:37.001Z,1.20
2023-07-24T16:39:06.825Z,1.50
2023-07-24T16:41:35.438Z,1.60
2023-07-24T16:44:03.595Z,1.20
2023-07-24T16:46:31.678Z,1.70
2023-07-24T16:49:01.027Z,1.40
2023-07-24T16:51:29.466Z,1.40
2023-07-24T16:53:57.681Z,1.10
2023-07-24T16:56:25.680Z,1.30
2023-07-24T16:58:53.692Z,1.60
2023-07-24T17:01:21.814Z,1.30
2023-07-24T17:03:50.225Z,1.80
2023-07-24T17:06:19.639Z,1.60
2023-07-24T17:08:47.825Z,0.80
2023-07-24T17:11:17.485Z,1.20
2023-07-24T17:13:45.625Z,1.13
2023-07-24T17:16:13.703Z,1.07
2023-07-24T17:18:41.784Z,1.57
2023-07-24T17:21:09.771Z,1.00
2023-07-24T17:23:39.118Z,2.60
2023-07-24T17:26:07.106Z,0.93
2023-07-24T17:28:35.088Z,0.83
2023-07-24T17:31:03.369Z,0.70
2023-07-24T17:33:31.379Z,1.03
2023-07-24T17:35:59.463Z,1.47
2023-07-24T17:38:27.494Z,1.43
2023-07-24T17:40:57.043Z,1.63
2023-07-24T17:43:25.031Z,0.87
2023-07-24T17:45:53.013Z,1.70
2023-07-24T17:48:21.012Z,1.43
2023-07-24T17:50:48.976Z,1.10
2023-07-24T17:53:16.958Z,0.73
2023-07-24T17:55:44.953Z,1.23
2023-07-24T17:58:14.276Z,1.03
2023-07-24T18:00:45.980Z,0.93
2023-07-24T18:03:14.899Z,1.20
2023-07-24T18:05:43.209Z,1.10
2023-07-24T18:08:11.179Z,0.93
2023-07-24T18:10:39.202Z,0.97
2023-07-24T18:13:07.175Z,1.10
2023-07-24T18:15:37.039Z,0.90
2023-07-24T18:18:05.114Z,0.97
2023-07-24T18:20:33.106Z,1.07
2023-07-24T18:23:01.089Z,0.87
2023-07-24T18:25:29.494Z,1.33
2023-07-24T18:27:57.456Z,1.27
2023-07-24T18:30:29.788Z,1.23
2023-07-24T18:32:59.741Z,0.73
2023-07-24T18:35:27.782Z,0.80
2023-07-24T18:37:56.759Z,1.13
2023-07-24T18:40:24.724Z,1.05
2023-07-24T18:42:52.710Z,0.77
2023-07-24T18:45:20.839Z,1.00
2023-07-24T18:47:48.919Z,1.33
2023-07-24T18:50:18.266Z,1.03
2023-07-24T18:52:46.254Z,1.60
2023-07-24T18:55:14.266Z,0.80
2023-07-24T18:57:42.265Z,0.80
2023-07-24T19:00:11.548Z,0.93
2023-07-24T19:02:39.600Z,1.53
2023-07-24T19:05:08.074Z,1.17
2023-07-24T19:07:37.464Z,1.00
2023-07-24T19:10:10.150Z,1.60
2023-07-24T19:12:39.919Z,0.90
2023-07-24T19:15:08.939Z,0.97
2023-07-24T19:17:38.904Z,1.83
2023-07-24T19:20:08.737Z,0.93
2023-07-24T19:22:38.154Z,1.00
2023-07-24T19:25:07.373Z,1.10
2023-07-24T19:27:35.401Z,0.80
2023-07-24T19:30:07.388Z,0.90
2023-07-24T19:32:38.343Z,1.23
2023-07-24T19:35:08.344Z,1.57
2023-07-24T19:37:37.687Z,0.80
2023-07-24T19:40:06.790Z,1.00
2023-07-24T19:42:34.770Z,0.70
2023-07-24T19:45:02.853Z,1.13
2023-07-24T19:47:30.941Z,1.47
2023-07-24T19:49:58.940Z,1.00
2023-07-24T19:52:28.749Z,1.30
2023-07-24T19:54:58.146Z,1.07
2023-07-24T19:57:27.673Z,1.30
2023-07-24T19:59:55.628Z,1.00
2023-07-24T20:02:23.658Z,1.07
2023-07-24T20:04:51.671Z,1.33
2023-07-24T20:07:21.177Z,1.10
2023-07-24T20:09:50.918Z,1.23
2023-07-24T20:12:20.341Z,0.90
2023-07-24T20:14:49.241Z,1.40
2023-07-24T20:17:17.330Z,1.00
2023-07-24T20:19:45.316Z,1.13
2023-07-24T20:22:13.288Z,1.00
2023-07-24T20:24:41.323Z,1.00
2023-07-24T20:27:09.351Z,1.07
2023-07-24T20:29:38.650Z,1.30
2023-07-24T20:32:07.391Z,1.67
2023-07-24T20:34:36.439Z,0.83
2023-07-24T20:37:04.715Z,1.13
2023-07-24T20:39:33.074Z,1.00
2023-07-24T20:42:01.115Z,1.40
2023-07-24T20:44:29.098Z,1.30
2023-07-24T20:46:58.434Z,1.30
2023-07-24T20:49:29.134Z,1.80
2023-07-24T20:51:57.541Z,1.17
2023-07-24T20:54:25.586Z,1.17
2023-07-24T20:56:53.532Z,1.23
2023-07-24T20:59:21.538Z,1.50
2023-07-24T21:01:49.572Z,1.07
2023-07-24T21:04:18.980Z,1.23
2023-07-24T21:06:47.035Z,1.07
2023-07-24T21:09:15.358Z,1.40
2023-07-24T21:11:43.323Z,1.17
2023-07-24T21:14:11.307Z,1.30
2023-07-24T21:16:39.566Z,0.73
2023-07-24T21:19:07.603Z,1.20
2023-07-24T21:21:36.957Z,1.10
2023-07-24T21:24:05.358Z,1.37
2023-07-24T21:26:33.443Z,1.10
2023-07-24T21:29:01.403Z,1.10
2023-07-24T21:31:30.571Z,1.30
2023-07-24T21:33:59.526Z,1.40
2023-07-24T21:36:27.511Z,1.03
2023-07-24T21:38:56.840Z,1.10
2023-07-24T21:41:24.857Z,1.27
2023-07-24T21:43:53.459Z,1.30
2023-07-24T21:46:21.454Z,1.20
2023-07-24T21:48:49.435Z,1.47
2023-07-24T21:51:17.602Z,0.87
2023-07-24T21:53:45.629Z,0.80
2023-07-24T21:56:14.966Z,1.00
2023-07-24T21:58:42.982Z,1.27
2023-07-24T22:01:11.102Z,1.10
2023-07-24T22:03:39.123Z,1.60
2023-07-24T22:06:07.819Z,1.17
2023-07-24T22:08:36.075Z,0.97
2023-07-24T22:11:11.031Z,1.37
2023-07-24T22:13:41.802Z,1.43
2023-07-24T22:16:09.832Z,0.90
2023-07-24T22:18:37.875Z,1.53
2023-07-24T22:21:06.636Z,1.13
2023-07-24T22:23:34.976Z,1.53
2023-07-24T22:26:03.174Z,1.33
2023-07-24T22:28:31.267Z,1.83
2023-07-24T22:31:00.899Z,0.93
2023-07-24T22:33:28.925Z,1.27
2023-07-24T22:35:59.978Z,1.20
2023-07-24T22:38:28.584Z,0.90
2023-07-24T22:40:56.638Z,1.07
2023-07-24T22:43:24.704Z,1.20
2023-07-24T22:45:52.813Z,1.17
2023-07-24T22:48:22.189Z,1.00
2023-07-24T22:50:50.191Z,1.83
2023-07-24T22:53:18.171Z,1.17
2023-07-24T22:55:46.156Z,0.67
2023-07-24T22:58:14.141Z,0.90
2023-07-24T23:00:42.124Z,1.40
2023-07-24T23:03:11.917Z,0.70
2023-07-24T23:05:41.341Z,0.70
2023-07-24T23:08:09.309Z,1.13
2023-07-24T23:10:37.296Z,1.20
2023-07-24T23:13:05.277Z,1.00
2023-07-24T23:15:34.743Z,0.97
2023-07-24T23:18:03.661Z,1.07
2023-07-24T23:20:31.717Z,1.10
2023-07-24T23:23:01.145Z,1.20
2023-07-24T23:25:29.125Z,0.80
2023-07-24T23:27:57.211Z,1.10
2023-07-24T23:30:25.220Z,1.20
2023-07-24T23:32:53.264Z,1.00
2023-07-24T23:35:21.253Z,1.03
2023-07-24T23:37:49.221Z,1.27
2023-07-24T23:40:18.544Z,1.30
2023-07-24T23:42:48.624Z,1.33
2023-07-24T23:45:16.848Z,0.90
2023-07-24T23:47:44.857Z,1.10
2023-07-24T23:50:12.957Z,2.63
2023-07-24T23:52:40.917Z,0.90
2023-07-24T23:55:09.428Z,1.73
2023-07-24T23:57:38.816Z,1.20
